createdAt,value
2019-02-14T00:02:04.735Z,102775.37
2019-02-14T00:04:31.679Z,102774.01
2019-02-14T00:06:58.623Z,102771.77
2019-02-14T00:09:25.551Z,102766.55
2019-02-14T00:11:52.506Z,102761.07
2019-02-14T00:14:19.433Z,102756.58
2019-02-14T00:16:46.367Z,102763.59
2019-02-14T00:19:13.280Z,102768.42
2019-02-14T00:21:40.182Z,102771.84
2019-02-14T00:24:07.145Z,102759.36
2019-02-14T00:26:34.061Z,102774.42
2019-02-14T00:29:00.987Z,102768.53
2019-02-14T00:31:27.876Z,102766.09
2019-02-14T00:33:54.816Z,102763.09
2019-02-14T00:36:21.714Z,102765.72
2019-02-14T00:38:48.664Z,102773.85
2019-02-14T00:41:15.595Z,102782.08
2019-02-14T00:43:42.532Z,102779.63
2019-02-14T00:46:09.425Z,102783.61
2019-02-14T00:48:36.367Z,102782.08
2019-02-14T00:51:03.263Z,102785.03
2019-02-14T00:53:30.196Z,102783.38
2019-02-14T00:55:57.123Z,102784.45
2019-02-14T00:58:24.897Z,102785.84
2019-02-14T01:00:51.819Z,102778.56
2019-02-14T01:03:18.754Z,102773.88
2019-02-14T01:05:45.665Z,102770.70
2019-02-14T01:08:12.636Z,102775.00
2019-02-14T01:10:39.537Z,102769.75
2019-02-14T01:13:06.464Z,102770.00
2019-02-14T01:15:34.694Z,102772.63
2019-02-14T01:18:01.688Z,102777.18
2019-02-14T01:20:28.601Z,102778.81
2019-02-14T01:22:55.536Z,102766.11
2019-02-14T01:25:22.423Z,102765.98
2019-02-14T01:27:49.340Z,102767.06
2019-02-14T01:30:16.274Z,102766.47
2019-02-14T01:32:43.195Z,102767.19
2019-02-14T01:35:10.228Z,102769.86
2019-02-14T01:37:37.121Z,102763.77
2019-02-14T01:40:04.581Z,102759.72
2019-02-14T01:42:31.482Z,102759.18
2019-02-14T01:44:58.451Z,102764.34
2019-02-14T01:47:25.393Z,102758.43
2019-02-14T01:49:52.349Z,102756.65
2019-02-14T01:52:19.258Z,102766.28
2019-02-14T01:54:46.202Z,102764.36
2019-02-14T01:57:13.108Z,102758.11
2019-02-14T01:59:40.053Z,102746.35
2019-02-14T02:02:06.976Z,102736.02
2019-02-14T02:04:33.922Z,102736.89
2019-02-14T02:07:00.811Z,102745.94
2019-02-14T02:09:27.747Z,102743.44
2019-02-14T02:11:54.632Z,102748.73
2019-02-14T02:14:21.592Z,102751.55
2019-02-14T02:16:48.499Z,102751.97
2019-02-14T02:19:15.446Z,102749.84
2019-02-14T02:21:42.340Z,102754.22
2019-02-14T02:24:09.288Z,102755.62
2019-02-14T02:26:36.185Z,102758.61
2019-02-14T02:29:03.114Z,102770.70
2019-02-14T02:31:29.996Z,102770.83
2019-02-14T02:33:56.934Z,102761.20
2019-02-14T02:36:23.833Z,102754.66
2019-02-14T02:38:50.777Z,102762.48
2019-02-14T02:41:17.692Z,102754.66
2019-02-14T02:43:44.616Z,102749.31
2019-02-14T02:46:11.524Z,102744.28
2019-02-14T02:48:38.429Z,102746.53
2019-02-14T02:51:05.518Z,102756.08
2019-02-14T02:53:32.422Z,102754.15
2019-02-14T02:55:59.346Z,102757.53
2019-02-14T02:58:26.255Z,102762.23
2019-02-14T03:00:53.204Z,102765.55
2019-02-14T03:03:20.126Z,102755.31
2019-02-14T03:05:47.048Z,102755.37
2019-02-14T03:08:14.027Z,102751.02
2019-02-14T03:10:40.946Z,102753.96
2019-02-14T03:13:07.837Z,102711.05
2019-02-14T03:15:34.787Z,102748.73
2019-02-14T03:18:01.704Z,102752.59
2019-02-14T03:20:28.599Z,102751.87
2019-02-14T03:22:55.484Z,102759.11
2019-02-14T03:25:22.400Z,102754.87
2019-02-14T03:27:49.298Z,102762.93
2019-02-14T03:30:16.231Z,102760.22
2019-02-14T03:32:43.102Z,102762.84
2019-02-14T03:35:10.078Z,102765.05
2019-02-14T03:37:36.976Z,102763.62
2019-02-14T03:40:04.753Z,102764.91
2019-02-14T03:42:31.653Z,102762.88
2019-02-14T03:44:58.579Z,102757.36
2019-02-14T03:47:25.456Z,102754.73
2019-02-14T03:49:52.345Z,102752.75
2019-02-14T03:52:19.277Z,102752.15
2019-02-14T03:54:46.148Z,102762.66
2019-02-14T03:57:13.067Z,102778.08
2019-02-14T03:59:39.971Z,102777.06
2019-02-14T04:02:06.912Z,102773.24
2019-02-14T04:04:33.813Z,102776.36
2019-02-14T04:07:00.745Z,102779.77
2019-02-14T04:09:27.646Z,102778.34
2019-02-14T04:11:54.559Z,102779.34
2019-02-14T04:14:21.476Z,102777.91
2019-02-14T04:16:48.396Z,102781.17
2019-02-14T04:19:15.289Z,102769.42
2019-02-14T04:21:42.199Z,102771.14
2019-02-14T04:24:09.082Z,102775.69
2019-02-14T04:26:35.996Z,102783.92
2019-02-14T04:29:02.902Z,102784.74
2019-02-14T04:31:29.817Z,102779.27
2019-02-14T04:33:56.695Z,102785.09
2019-02-14T04:36:23.605Z,102773.48
2019-02-14T04:38:50.480Z,102783.80
2019-02-14T04:41:17.411Z,102791.63
2019-02-14T04:43:44.302Z,102792.09
2019-02-14T04:46:11.217Z,102792.16
2019-02-14T04:48:38.117Z,102793.73
2019-02-14T04:51:05.119Z,102797.31
2019-02-14T04:53:31.951Z,102794.77
2019-02-14T04:55:58.895Z,102791.45
2019-02-14T04:58:25.772Z,102790.87
2019-02-14T05:00:52.676Z,102785.71
2019-02-14T05:03:19.592Z,102790.05
2019-02-14T05:05:46.497Z,102788.22
2019-02-14T05:08:13.424Z,102803.32
2019-02-14T05:10:40.356Z,102804.31
2019-02-14T05:13:07.321Z,102804.11
2019-02-14T05:15:34.246Z,102811.70
2019-02-14T05:18:01.170Z,102801.80
2019-02-14T05:20:28.069Z,102802.56
2019-02-14T05:22:55.005Z,102797.75
2019-02-14T05:25:21.939Z,102800.04
2019-02-14T05:27:48.816Z,102796.44
2019-02-14T05:30:15.750Z,102798.34
2019-02-14T05:32:42.667Z,102797.88
2019-02-14T05:35:09.564Z,102801.68
2019-02-14T05:37:36.498Z,102805.95
2019-02-14T05:40:03.984Z,102805.95
2019-02-14T05:42:30.901Z,102814.53
2019-02-14T05:44:57.780Z,102809.23
2019-02-14T05:47:24.686Z,102803.17
2019-02-14T05:49:51.569Z,102804.25
2019-02-14T05:52:18.468Z,102811.52
2019-02-14T05:54:45.350Z,102823.16
2019-02-14T05:57:12.299Z,102824.84
2019-02-14T05:59:39.182Z,102830.27
2019-02-14T06:02:06.071Z,102828.15
2019-02-14T06:04:33.035Z,102831.13
2019-02-14T06:07:01.280Z,102832.58
2019-02-14T06:09:28.451Z,102821.72
2019-02-14T06:11:55.348Z,102821.36
2019-02-14T06:14:22.293Z,102816.10
2019-02-14T06:16:49.194Z,102814.97
2019-02-14T06:19:16.122Z,102818.63
2019-02-14T06:21:43.013Z,102814.91
2019-02-14T06:24:09.929Z,102823.94
2019-02-14T06:26:36.833Z,102831.34
2019-02-14T06:29:03.757Z,102835.73
2019-02-14T06:31:30.675Z,102793.22
2019-02-14T06:33:57.579Z,102842.21
2019-02-14T06:36:24.464Z,102845.41
2019-02-14T06:38:51.382Z,102849.27
2019-02-14T06:41:18.271Z,102855.50
2019-02-14T06:43:45.185Z,102860.92
2019-02-14T06:46:12.062Z,102865.50
2019-02-14T06:48:38.971Z,102867.67
2019-02-14T06:51:05.854Z,102860.70
2019-02-14T06:53:32.785Z,102858.44
2019-02-14T06:55:59.664Z,102857.97
2019-02-14T06:58:26.589Z,102855.30
2019-02-14T07:00:53.511Z,102865.25
2019-02-14T07:03:20.466Z,102870.24
2019-02-14T07:05:47.354Z,102877.41
2019-02-14T07:08:14.280Z,102875.54
2019-02-14T07:10:41.227Z,102881.68
2019-02-14T07:13:08.118Z,102882.30
2019-02-14T07:15:35.077Z,102880.91
2019-02-14T07:18:01.958Z,102869.06
2019-02-14T07:20:28.879Z,102868.49
2019-02-14T07:22:55.813Z,102868.59
2019-02-14T07:25:23.061Z,102871.52
2019-02-14T07:27:49.937Z,102871.99
2019-02-14T07:30:18.117Z,102868.13
2019-02-14T07:32:44.988Z,102870.91
2019-02-14T07:35:12.005Z,102862.66
2019-02-14T07:37:38.889Z,102870.03
2019-02-14T07:40:07.936Z,102869.45
2019-02-14T07:42:34.817Z,102875.38
2019-02-14T07:45:01.778Z,102875.20
2019-02-14T07:47:28.638Z,102875.15
2019-02-14T07:49:55.545Z,102876.76
2019-02-14T07:52:25.288Z,102871.34
2019-02-14T07:54:51.260Z,102872.66
2019-02-14T07:57:18.155Z,102873.83
2019-02-14T07:59:45.068Z,102864.19
2019-02-14T08:02:11.973Z,102860.73
2019-02-14T08:04:38.917Z,102867.98
2019-02-14T08:07:05.800Z,102870.39
2019-02-14T08:09:32.691Z,102870.71
2019-02-14T08:11:59.677Z,102881.03
2019-02-14T08:14:26.578Z,102883.43
2019-02-14T08:16:53.525Z,102884.33
2019-02-14T08:19:20.476Z,102887.39
2019-02-14T08:21:47.413Z,102890.44
2019-02-14T08:24:14.509Z,102885.48
2019-02-14T08:26:41.461Z,102888.69
2019-02-14T08:29:08.704Z,102886.12
2019-02-14T08:31:35.662Z,102880.31
2019-02-14T08:34:02.792Z,102884.83
2019-02-14T08:36:29.754Z,102891.66
2019-02-14T08:38:56.591Z,102897.19
2019-02-14T08:41:23.523Z,102898.34
2019-02-14T08:43:50.413Z,102897.64
2019-02-14T08:46:18.702Z,102901.29
2019-02-14T08:48:45.765Z,102901.50
2019-02-14T08:51:12.700Z,102903.56
2019-02-14T08:53:39.664Z,102893.64
2019-02-14T08:56:06.601Z,102897.03
2019-02-14T08:58:33.497Z,102897.87
2019-02-14T09:01:00.452Z,102894.75
2019-02-14T09:03:27.346Z,102891.57
2019-02-14T09:05:54.274Z,102885.61
2019-02-14T09:08:21.218Z,102880.75
2019-02-14T09:10:48.100Z,102880.02
2019-02-14T09:13:17.278Z,102872.56
2019-02-14T09:15:43.920Z,102886.69
2019-02-14T09:18:10.958Z,102895.56
2019-02-14T09:20:37.871Z,102901.25
2019-02-14T09:23:04.817Z,102898.97
2019-02-14T09:25:31.723Z,102900.45
2019-02-14T09:27:58.742Z,102899.96
2019-02-14T09:30:25.625Z,102902.66
2019-02-14T09:32:52.671Z,102905.52
2019-02-14T09:35:19.577Z,102898.97
2019-02-14T09:37:46.517Z,102891.50
2019-02-14T09:40:13.473Z,102893.02
2019-02-14T09:42:40.472Z,102886.85
2019-02-14T09:45:08.620Z,102888.31
2019-02-14T09:47:35.525Z,102893.31
2019-02-14T09:50:02.765Z,102882.88
2019-02-14T09:52:29.758Z,102883.89
2019-02-14T09:54:56.688Z,102885.42
2019-02-14T09:57:23.586Z,102891.25
2019-02-14T09:59:50.500Z,102883.99
2019-02-14T10:02:17.552Z,102888.58
2019-02-14T10:04:44.439Z,102886.83
2019-02-14T10:07:11.825Z,102887.78
2019-02-14T10:09:38.833Z,102884.59
2019-02-14T10:12:05.859Z,102877.65
2019-02-14T10:14:32.791Z,102875.05
2019-02-14T10:16:59.726Z,102873.05
2019-02-14T10:19:28.677Z,102876.76
2019-02-14T10:21:55.493Z,102874.48
2019-02-14T10:24:22.430Z,102881.23
2019-02-14T10:26:49.324Z,102882.62
2019-02-14T10:29:16.268Z,102885.49
2019-02-14T10:31:43.207Z,102883.95
2019-02-14T10:34:10.126Z,102890.21
2019-02-14T10:36:37.033Z,102887.22
2019-02-14T10:39:04.759Z,102883.75
2019-02-14T10:41:31.711Z,102879.78
2019-02-14T10:43:58.651Z,102873.38
2019-02-14T10:46:25.564Z,102880.27
2019-02-14T10:48:52.517Z,102879.96
2019-02-14T10:51:19.431Z,102877.75
2019-02-14T10:53:46.422Z,102868.25
2019-02-14T10:56:13.363Z,102871.91
2019-02-14T10:58:40.329Z,102862.44
2019-02-14T11:01:07.280Z,102864.02
2019-02-14T11:03:34.348Z,102866.30
2019-02-14T11:06:01.280Z,102864.14
2019-02-14T11:08:31.670Z,102864.98
2019-02-14T11:10:57.145Z,102868.28
2019-02-14T11:13:24.123Z,102867.80
2019-02-14T11:15:51.272Z,102861.92
2019-02-14T11:18:18.285Z,102861.36
2019-02-14T11:20:45.200Z,102856.27
2019-02-14T11:23:12.278Z,102859.82
2019-02-14T11:25:39.256Z,102854.98
2019-02-14T11:28:06.172Z,102856.65
2019-02-14T11:30:33.180Z,102851.14
2019-02-14T11:33:00.058Z,102846.34
2019-02-14T11:35:27.006Z,102844.06
2019-02-14T11:37:54.045Z,102845.23
2019-02-14T11:40:20.963Z,102845.32
2019-02-14T11:42:47.966Z,102844.56
2019-02-14T11:45:16.231Z,102845.77
2019-02-14T11:47:43.158Z,102845.95
2019-02-14T11:50:10.371Z,102844.13
2019-02-14T11:52:37.462Z,102857.66
2019-02-14T11:55:04.846Z,102855.81
2019-02-14T11:57:31.750Z,102847.80
2019-02-14T11:59:58.693Z,102847.02
2019-02-14T12:02:25.608Z,102843.17
2019-02-14T12:04:53.633Z,102849.83
2019-02-14T12:07:22.194Z,102853.61
2019-02-14T12:09:51.237Z,102853.37
2019-02-14T12:12:18.131Z,102844.81
2019-02-14T12:14:45.131Z,102842.21
2019-02-14T12:17:12.116Z,102844.67
2019-02-14T12:19:39.031Z,102842.79
2019-02-14T12:22:06.132Z,102844.83
2019-02-14T12:24:33.023Z,102835.45
2019-02-14T12:27:00.367Z,102826.02
2019-02-14T12:29:27.456Z,102824.55
2019-02-14T12:31:54.345Z,102827.14
2019-02-14T12:34:21.349Z,102821.20
2019-02-14T12:36:48.424Z,102822.61
2019-02-14T12:39:15.343Z,102820.02
2019-02-14T12:41:42.533Z,102807.72
2019-02-14T12:44:09.463Z,102807.66
2019-02-14T12:46:37.938Z,102803.39
2019-02-14T12:49:04.933Z,102802.93
2019-02-14T12:51:31.944Z,102806.00
2019-02-14T12:53:58.943Z,102802.48
2019-02-14T12:56:26.226Z,102803.33
2019-02-14T12:58:53.816Z,102801.61
2019-02-14T13:01:22.013Z,102797.64
2019-02-14T13:03:51.272Z,102789.73
2019-02-14T13:06:19.361Z,102789.23
2019-02-14T13:08:46.292Z,102785.77
2019-02-14T13:11:13.355Z,102784.95
2019-02-14T13:13:40.279Z,102780.50
2019-02-14T13:16:07.255Z,102785.69
2019-02-14T13:18:34.175Z,102777.27
2019-02-14T13:21:01.131Z,102773.79
2019-02-14T13:23:28.082Z,102771.16
2019-02-14T13:25:55.118Z,102775.25
2019-02-14T13:28:22.033Z,102782.61
2019-02-14T13:30:49.314Z,102772.41
2019-02-14T13:33:16.862Z,102768.72
2019-02-14T13:35:43.823Z,102760.92
2019-02-14T13:38:10.744Z,102763.08
2019-02-14T13:40:37.846Z,102766.67
2019-02-14T13:43:04.775Z,102763.20
2019-02-14T13:45:31.744Z,102761.47
2019-02-14T13:47:58.866Z,102759.13
2019-02-14T13:50:25.788Z,102757.84
2019-02-14T13:52:52.694Z,102752.00
2019-02-14T13:55:19.669Z,102745.78
2019-02-14T13:57:46.620Z,102742.30
2019-02-14T14:00:16.625Z,102743.19
2019-02-14T14:02:43.590Z,102740.08
2019-02-14T14:05:10.498Z,102739.42
2019-02-14T14:07:40.494Z,102739.82
2019-02-14T14:10:06.976Z,102739.88
2019-02-14T14:12:34.020Z,102740.91
2019-02-14T14:15:00.974Z,102743.09
2019-02-14T14:17:27.945Z,102744.94
2019-02-14T14:19:54.884Z,102742.41
2019-02-14T14:22:21.918Z,102738.37
2019-02-14T14:24:48.876Z,102735.32
2019-02-14T14:27:15.859Z,102737.91
2019-02-14T14:29:42.768Z,102727.91
2019-02-14T14:32:09.693Z,102728.25
2019-02-14T14:34:36.585Z,102724.59
2019-02-14T14:37:03.586Z,102728.54
2019-02-14T14:39:30.475Z,102734.75
2019-02-14T14:41:57.404Z,102730.20
2019-02-14T14:44:32.249Z,102727.63
2019-02-14T14:47:01.936Z,102722.76
2019-02-14T14:49:28.838Z,102724.00
2019-02-14T14:51:55.807Z,102716.77
2019-02-14T14:54:22.695Z,102720.81
2019-02-14T14:56:49.641Z,102719.49
2019-02-14T14:59:16.541Z,102715.99
2019-02-14T15:01:43.818Z,102709.91
2019-02-14T15:04:10.974Z,102714.37
2019-02-14T15:06:37.959Z,102712.61
2019-02-14T15:09:05.949Z,102713.97
2019-02-14T15:11:32.871Z,102714.86
2019-02-14T15:13:59.812Z,102707.46
2019-02-14T15:16:26.746Z,102712.70
2019-02-14T15:18:53.683Z,102706.16
2019-02-14T15:21:20.638Z,102674.72
2019-02-14T15:23:47.831Z,102704.93
2019-02-14T15:26:14.721Z,102709.31
2019-02-14T15:28:41.659Z,102705.38
2019-02-14T15:31:08.598Z,102707.15
2019-02-14T15:33:35.592Z,102700.59
2019-02-14T15:36:02.492Z,102704.08
2019-02-14T15:38:29.434Z,102697.09
2019-02-14T15:40:56.340Z,102696.61
2019-02-14T15:43:23.270Z,102690.05
2019-02-14T15:45:50.301Z,102685.25
2019-02-14T15:48:17.291Z,102688.73
2019-02-14T15:50:44.193Z,102691.36
2019-02-14T15:53:11.122Z,102693.53
2019-02-14T15:55:39.086Z,102689.58
2019-02-14T15:58:09.167Z,102690.86
2019-02-14T16:00:35.743Z,102685.61
2019-02-14T16:03:02.696Z,102682.97
2019-02-14T16:05:29.620Z,102682.09
2019-02-14T16:07:56.571Z,102686.86
2019-02-14T16:10:25.528Z,102682.86
2019-02-14T16:12:52.397Z,102681.95
2019-02-14T16:15:19.354Z,102677.50
2019-02-14T16:17:46.268Z,102674.41
2019-02-14T16:20:15.176Z,102676.98
2019-02-14T16:22:44.045Z,102678.20
2019-02-14T16:25:11.097Z,102675.94
2019-02-14T16:27:38.185Z,102678.42
2019-02-14T16:30:07.709Z,102672.25
2019-02-14T16:32:34.615Z,102674.27
2019-02-14T16:35:01.539Z,102679.80
2019-02-14T16:37:28.438Z,102674.05
2019-02-14T16:39:56.842Z,102676.50
2019-02-14T16:42:24.328Z,102675.05
2019-02-14T16:44:51.260Z,102676.67
2019-02-14T16:47:18.170Z,102674.37
2019-02-14T16:49:45.108Z,102676.44
2019-02-14T16:52:12.010Z,102688.97
2019-02-14T16:54:38.948Z,102693.35
2019-02-14T16:57:05.837Z,102687.16
2019-02-14T16:59:32.782Z,102687.81
2019-02-14T17:01:59.671Z,102691.52
2019-02-14T17:04:26.606Z,102696.84
2019-02-14T17:06:53.506Z,102686.26
2019-02-14T17:09:20.499Z,102699.65
2019-02-14T17:11:47.405Z,102696.90
2019-02-14T17:14:14.463Z,102702.80
2019-02-14T17:16:41.467Z,102701.30
2019-02-14T17:19:08.401Z,102705.59
2019-02-14T17:21:35.281Z,102711.41
2019-02-14T17:24:02.201Z,102708.30
2019-02-14T17:26:29.089Z,102717.91
2019-02-14T17:28:56.231Z,102716.91
2019-02-14T17:31:23.183Z,102724.94
2019-02-14T17:33:50.124Z,102719.06
2019-02-14T17:36:17.117Z,102716.69
2019-02-14T17:38:44.046Z,102719.23
2019-02-14T17:41:10.939Z,102723.92
2019-02-14T17:43:37.826Z,102718.70
2019-02-14T17:46:04.811Z,102722.39
2019-02-14T17:48:31.725Z,102701.08
2019-02-14T17:50:58.632Z,102721.16
2019-02-14T17:53:25.532Z,102717.81
2019-02-14T17:55:52.458Z,102713.54
2019-02-14T17:58:19.362Z,102718.96
2019-02-14T18:00:46.285Z,102714.17
2019-02-14T18:03:13.205Z,102721.42
2019-02-14T18:05:40.136Z,102715.83
2019-02-14T18:08:07.059Z,102713.31
2019-02-14T18:10:34.021Z,102719.05
2019-02-14T18:13:00.939Z,102718.70
2019-02-14T18:15:27.918Z,102714.50
2019-02-14T18:17:54.932Z,102716.25
2019-02-14T18:20:22.000Z,102718.40
2019-02-14T18:22:48.923Z,102719.21
2019-02-14T18:25:15.877Z,102716.14
2019-02-14T18:27:42.787Z,102717.03
2019-02-14T18:30:09.939Z,102714.03
2019-02-14T18:32:36.848Z,102717.56
2019-02-14T18:35:05.001Z,102719.05
2019-02-14T18:37:31.906Z,102714.87
2019-02-14T18:39:58.830Z,102715.78
2019-02-14T18:42:25.799Z,102711.65
2019-02-14T18:44:52.792Z,102713.46
2019-02-14T18:47:20.008Z,102711.20
2019-02-14T18:49:46.981Z,102716.48
2019-02-14T18:52:13.955Z,102718.77
2019-02-14T18:54:40.962Z,102715.36
2019-02-14T18:57:07.897Z,102717.47
2019-02-14T18:59:34.823Z,102714.69
2019-02-14T19:02:01.774Z,102714.08
2019-02-14T19:04:28.676Z,102708.58
2019-02-14T19:06:55.958Z,102712.89
2019-02-14T19:09:23.131Z,102716.20
2019-02-14T19:11:50.063Z,102705.92
2019-02-14T19:14:16.949Z,102708.87
2019-02-14T19:16:43.932Z,102706.01
2019-02-14T19:19:10.810Z,102707.42
2019-02-14T19:21:37.748Z,102703.09
2019-02-14T19:24:04.658Z,102709.16
2019-02-14T19:26:31.666Z,102706.35
2019-02-14T19:28:58.588Z,102709.89
2019-02-14T19:31:25.801Z,102710.73
2019-02-14T19:33:52.687Z,102704.29
2019-02-14T19:36:19.630Z,102700.42
2019-02-14T19:38:46.531Z,102697.00
2019-02-14T19:41:13.481Z,102698.64
2019-02-14T19:43:40.391Z,102703.70
2019-02-14T19:46:07.323Z,102702.20
2019-02-14T19:48:34.348Z,102699.81
2019-02-14T19:51:01.257Z,102698.83
2019-02-14T19:53:28.150Z,102702.33
2019-02-14T19:55:55.160Z,102692.25
2019-02-14T19:58:22.077Z,102684.87
2019-02-14T20:00:49.039Z,102688.52
2019-02-14T20:03:15.967Z,102684.98
2019-02-14T20:05:42.923Z,102685.94
2019-02-14T20:08:09.846Z,102678.75
2019-02-14T20:10:36.784Z,102684.61
2019-02-14T20:13:04.010Z,102679.31
2019-02-14T20:15:37.171Z,102680.53
2019-02-14T20:17:59.822Z,102680.84
2019-02-14T20:20:26.768Z,102677.75
2019-02-14T20:22:53.660Z,102671.33
2019-02-14T20:25:21.716Z,102673.91
2019-02-14T20:27:50.017Z,102671.70
2019-02-14T20:30:17.141Z,102676.22
2019-02-14T20:32:44.123Z,102672.69
2019-02-14T20:35:11.061Z,102668.23
2019-02-14T20:37:37.988Z,102672.23
2019-02-14T20:40:05.562Z,102670.26
2019-02-14T20:42:32.503Z,102665.09
2019-02-14T20:44:59.393Z,102659.34
2019-02-14T20:47:26.334Z,102671.22
2019-02-14T20:49:53.240Z,102668.48
2019-02-14T20:52:20.162Z,102668.94
2019-02-14T20:54:47.538Z,102672.85
2019-02-14T20:57:14.465Z,102662.16
2019-02-14T20:59:41.617Z,102654.75
2019-02-14T21:02:08.542Z,102659.16
2019-02-14T21:04:35.437Z,102663.41
2019-02-14T21:07:02.398Z,102666.95
2019-02-14T21:09:29.316Z,102661.47
2019-02-14T21:11:56.276Z,102664.63
2019-02-14T21:14:23.170Z,102668.92
2019-02-14T21:16:50.358Z,102665.77
2019-02-14T21:19:17.270Z,102659.80
2019-02-14T21:21:44.267Z,102667.77
2019-02-14T21:24:11.295Z,102666.85
2019-02-14T21:26:38.339Z,102664.70
2019-02-14T21:29:05.266Z,102649.68
2019-02-14T21:31:32.253Z,102665.26
2019-02-14T21:33:59.141Z,102664.68
2019-02-14T21:36:26.050Z,102665.02
2019-02-14T21:38:53.059Z,102664.72
2019-02-14T21:41:20.022Z,102672.13
2019-02-14T21:43:46.953Z,102660.33
2019-02-14T21:46:13.863Z,102657.21
2019-02-14T21:48:40.785Z,102655.68
2019-02-14T21:51:07.665Z,102655.44
2019-02-14T21:53:34.586Z,102661.94
2019-02-14T21:56:01.442Z,102661.14
2019-02-14T21:58:28.375Z,102669.55
2019-02-14T22:00:55.457Z,102668.18
2019-02-14T22:03:22.385Z,102668.55
2019-02-14T22:05:49.276Z,102663.38
2019-02-14T22:08:16.591Z,102666.06
2019-02-14T22:10:43.466Z,102664.09
2019-02-14T22:13:10.463Z,102670.30
2019-02-14T22:15:37.398Z,102672.59
2019-02-14T22:18:04.369Z,102665.34
2019-02-14T22:20:31.350Z,102657.39
2019-02-14T22:22:58.430Z,102662.62
2019-02-14T22:25:25.370Z,102670.69
2019-02-14T22:27:52.308Z,102670.22
2019-02-14T22:30:19.496Z,102668.62
2019-02-14T22:32:46.494Z,102665.00
2019-02-14T22:35:13.389Z,102663.94
2019-02-14T22:37:40.360Z,102668.17
2019-02-14T22:40:07.848Z,102665.80
2019-02-14T22:42:35.071Z,102658.00
2019-02-14T22:45:01.929Z,102672.47
2019-02-14T22:47:28.995Z,102668.60
2019-02-14T22:49:55.930Z,102673.13
2019-02-14T22:52:23.032Z,102667.23
2019-02-14T22:54:49.993Z,102667.92
2019-02-14T22:57:16.886Z,102665.62
2019-02-14T22:59:43.868Z,102668.75
2019-02-14T23:02:10.895Z,102669.67
2019-02-14T23:04:37.838Z,102664.00
2019-02-14T23:07:05.015Z,102673.82
2019-02-14T23:09:32.015Z,102674.59
2019-02-14T23:11:58.976Z,102677.69
2019-02-14T23:14:25.919Z,102668.80
2019-02-14T23:16:52.881Z,102674.32
2019-02-14T23:19:19.818Z,102678.33
2019-02-14T23:21:46.800Z,102673.50
2019-02-14T23:24:13.880Z,102688.64
2019-02-14T23:26:40.789Z,102670.87
2019-02-14T23:29:07.727Z,102669.91
2019-02-14T23:31:34.631Z,102670.64
2019-02-14T23:34:01.557Z,102678.13
2019-02-14T23:36:28.501Z,102674.88
2019-02-14T23:38:55.410Z,102671.32
2019-02-14T23:41:24.642Z,102666.91
2019-02-14T23:43:51.552Z,102668.00
2019-02-14T23:46:18.515Z,102672.28
2019-02-14T23:48:45.517Z,102675.00
2019-02-14T23:51:12.434Z,102679.27
2019-02-14T23:53:39.376Z,102681.30
2019-02-14T23:56:06.278Z,102681.84
2019-02-14T23:58:33.273Z,102673.14
